Time;durP1;ratioP1;P1;durP2;ratioP2;P2;SDS_P1;SDS_P2;PMS_P1;PMS_P2;Temp;Humidity;BMP_temperature;BMP_pressure;BME280_temperature;BME280_humidity;BME280_pressure;Samples;Min_cycle;Max_cycle;Signal;HPM_P1;HPM_P2
2022/10/06 00:17:38;;;;;;;12.13;2.17;;;17.80;74.90;;;;;;5093643;27;20412;-71
2022/10/06 00:20:05;;;;;;;7.40;2.70;;;18.00;75.50;;;;;;5085438;28;20064;-71
2022/10/06 00:22:41;;;;;;;13.80;3.97;;;18.00;75.30;;;;;;5083693;28;20407;-72
2022/10/06 00:25:09;;;;;;;7.75;3.10;;;18.00;75.80;;;;;;5088050;28;20028;-71
2022/10/06 00:27:38;;;;;;;10.90;3.38;;;18.00;75.20;;;;;;5081560;28;20118;-71
2022/10/06 00:30:07;;;;;;;6.55;2.17;;;18.10;75.20;;;;;;5086026;28;20025;-71
2022/10/06 00:32:34;;;;;;;14.10;2.17;;;18.10;75.20;;;;;;5088405;28;20023;-71
2022/10/06 00:35:00;;;;;;;8.68;1.50;;;18.10;75.20;;;;;;5088205;28;20020;-71
2022/10/06 00:37:34;;;;;;;9.73;2.33;;;18.10;75.30;;;;;;5086135;28;20059;-71
2022/10/06 00:40:01;;;;;;;7.40;1.60;;;18.10;75.30;;;;;;5099132;28;20388;-71
2022/10/06 00:42:30;;;;;;;9.40;2.38;;;18.10;75.30;;;;;;5088208;28;20471;-72
2022/10/06 00:45:02;;;;;;;14.40;2.70;;;18.10;75.40;;;;;;5084264;28;20025;-71
2022/10/06 00:47:31;;;;;;;11.45;1.95;;;18.10;75.40;;;;;;5087883;28;20024;-72
2022/10/06 00:49:59;;;;;;;6.15;1.35;;;18.20;75.60;;;;;;5086462;28;20467;-71
2022/10/06 00:52:29;;;;;;;7.10;2.00;;;18.10;76.10;;;;;;5086842;28;20033;-71
2022/10/06 00:54:58;;;;;;;40.85;6.18;;;18.20;75.50;;;;;;5089182;28;20036;-72
2022/10/06 00:57:26;;;;;;;11.98;2.15;;;18.20;76.00;;;;;;5084639;28;20074;-71
2022/10/06 00:59:53;;;;;;;5.07;1.77;;;18.20;76.20;;;;;;5085239;28;20474;-72
2022/10/06 01:02:28;;;;;;;7.53;1.95;;;18.20;76.70;;;;;;5087388;28;20568;-71
2022/10/06 01:04:59;;;;;;;7.60;1.42;;;18.20;76.10;;;;;;5083969;28;20028;-71
2022/10/06 01:07:27;;;;;;;4.45;1.50;;;18.20;76.00;;;;;;5086393;28;20542;-71
2022/10/06 01:09:56;;;;;;;13.38;2.53;;;18.20;76.00;;;;;;5091758;28;20026;-71
2022/10/06 01:12:23;;;;;;;11.65;1.83;;;18.20;76.20;;;;;;5087471;28;20019;-71
2022/10/06 01:14:51;;;;;;;5.13;1.85;;;18.20;76.30;;;;;;5087259;28;20028;-71
2022/10/06 01:17:54;;;;;;;7.40;1.55;;;18.20;76.30;;;;;;5076930;28;20055;-71
2022/10/06 01:20:22;;;;;;;26.27;2.28;;;18.20;76.50;;;;;;5075507;28;20078;-71
2022/10/06 01:22:59;;;;;;;8.85;1.90;;;18.30;76.80;;;;;;5072845;28;20020;-71
2022/10/06 01:25:27;;;;;;;5.10;1.52;;;18.30;76.90;;;;;;5075229;28;20048;-71
2022/10/06 01:27:55;;;;;;;8.50;1.95;;;18.20;76.80;;;;;;5071813;28;20475;-71
2022/10/06 01:30:49;;;;;;;6.13;2.53;;;18.30;76.80;;;;;;5075621;28;20048;-71
2022/10/06 01:33:16;;;;;;;5.75;2.88;;;18.20;76.50;;;;;;5075944;28;20056;-71
2022/10/06 01:35:47;;;;;;;7.07;2.50;;;18.20;76.40;;;;;;5069773;28;20029;-71
2022/10/06 01:38:13;;;;;;;6.18;1.65;;;18.20;76.30;;;;;;5075163;28;20505;-71
2022/10/06 01:40:39;;;;;;;10.63;1.45;;;18.20;76.10;;;;;;5073622;28;20012;-71
2022/10/06 01:43:06;;;;;;;3.17;1.20;;;18.20;76.10;;;;;;5074401;28;20012;-71
2022/10/06 01:45:32;;;;;;;7.05;2.13;;;18.20;75.90;;;;;;5070573;28;20047;-71
2022/10/06 01:47:59;;;;;;;5.50;1.55;;;18.20;75.70;;;;;;5073720;28;20112;-71
2022/10/06 01:50:26;;;;;;;6.68;2.42;;;18.20;75.50;;;;;;5070060;28;20025;-71
2022/10/06 01:52:54;;;;;;;10.13;1.85;;;18.20;75.50;;;;;;5075947;28;20020;-71
2022/10/06 01:55:21;;;;;;;5.60;1.40;;;18.10;75.40;;;;;;5071937;28;20044;-71
2022/10/06 01:57:47;;;;;;;6.90;2.00;;;18.20;75.30;;;;;;5075979;28;20021;-71
2022/10/06 02:00:14;;;;;;;4.85;1.90;;;18.20;75.30;;;;;;5071889;28;20052;-71
2022/10/06 02:02:41;;;;;;;6.65;1.90;;;18.10;75.90;;;;;;5069067;28;20118;-71
2022/10/06 02:05:08;;;;;;;5.45;1.65;;;18.10;75.30;;;;;;5073024;28;20037;-71
2022/10/06 02:07:35;;;;;;;15.65;2.50;;;18.10;75.30;;;;;;5071323;28;20025;-71
2022/10/06 02:10:02;;;;;;;6.57;1.75;;;18.10;75.50;;;;;;5071489;28;20020;-70
2022/10/06 02:12:30;;;;;;;6.28;2.03;;;18.10;76.40;;;;;;5072178;28;20621;-71
2022/10/06 02:14:57;;;;;;;4.82;1.40;;;18.10;75.60;;;;;;5074048;28;20024;-71
2022/10/06 02:17:24;;;;;;;5.60;1.90;;;18.10;75.60;;;;;;5070836;28;20399;-71
2022/10/06 02:19:50;;;;;;;5.40;2.25;;;18.10;75.60;;;;;;5072301;28;20023;-71
2022/10/06 02:22:17;;;;;;;7.65;2.35;;;18.00;75.50;;;;;;5074591;28;20036;-71
2022/10/06 02:24:43;;;;;;;3.63;1.63;;;18.00;75.70;;;;;;5070723;28;20020;-71
2022/10/06 02:27:10;;;;;;;6.93;2.38;;;18.00;75.80;;;;;;5071504;28;20069;-71
2022/10/06 02:29:36;;;;;;;6.05;2.58;;;17.90;75.70;;;;;;5071408;28;20537;-71
2022/10/06 02:32:04;;;;;;;6.70;2.42;;;17.90;75.70;;;;;;5072223;28;20422;-71
2022/10/06 02:34:30;;;;;;;9.55;2.88;;;17.90;75.80;;;;;;5071042;28;20075;-71
2022/10/06 02:36:56;;;;;;;6.05;1.48;;;17.90;75.80;;;;;;5071658;28;20028;-71
2022/10/06 02:39:23;;;;;;;7.18;3.20;;;17.90;75.80;;;;;;5072745;28;20379;-71
2022/10/06 02:41:49;;;;;;;52.22;7.03;;;17.80;75.80;;;;;;5069559;28;20052;-71
2022/10/06 02:44:16;;;;;;;9.73;3.00;;;17.80;76.20;;;;;;5071755;28;20012;-71
2022/10/06 02:46:42;;;;;;;17.13;4.40;;;17.80;76.50;;;;;;5071698;28;20495;-71
2022/10/06 02:49:09;;;;;;;5.55;2.45;;;17.90;76.90;;;;;;5071656;28;20032;-71
2022/10/06 02:51:35;;;;;;;20.30;5.82;;;17.80;76.90;;;;;;5070927;28;20025;-71
2022/10/06 02:54:02;;;;;;;10.73;3.30;;;17.80;76.30;;;;;;5073351;28;20021;-71
2022/10/06 02:56:28;;;;;;;9.15;2.80;;;17.80;76.10;;;;;;5071841;28;20031;-71
2022/10/06 02:58:55;;;;;;;5.60;2.80;;;17.80;76.10;;;;;;5070612;28;20016;-71
2022/10/06 03:01:24;;;;;;;5.75;2.20;;;17.80;76.10;;;;;;5069975;28;20089;-71
2022/10/06 03:03:51;;;;;;;9.88;2.85;;;17.80;76.10;;;;;;5070909;28;20390;-71
2022/10/06 03:06:36;;;;;;;8.45;2.03;;;17.80;76.00;;;;;;5070339;28;20029;-71
2022/10/06 03:09:05;;;;;;;4.35;2.30;;;17.80;75.90;;;;;;5060156;28;20352;-72
2022/10/06 03:11:34;;;;;;;7.70;1.83;;;17.80;75.70;;;;;;5070781;28;20107;-72
2022/10/06 03:14:01;;;;;;;2.90;1.50;;;17.80;75.50;;;;;;5068970;28;20090;-71
2022/10/06 03:16:33;;;;;;;8.10;2.38;;;17.80;75.40;;;;;;5073535;28;20040;-71
2022/10/06 03:19:02;;;;;;;23.75;3.28;;;17.80;75.30;;;;;;5072342;28;20028;-72
2022/10/06 03:21:31;;;;;;;12.55;2.55;;;17.80;76.10;;;;;;5069859;28;20071;-71
2022/10/06 03:23:58;;;;;;;8.75;2.50;;;17.80;76.30;;;;;;5072770;28;20017;-72
2022/10/06 03:26:28;;;;;;;6.63;1.92;;;17.70;76.20;;;;;;5073381;28;20040;-71
2022/10/06 03:28:56;;;;;;;6.10;1.70;;;17.70;76.10;;;;;;5069652;28;20383;-71
2022/10/06 03:31:24;;;;;;;7.80;1.67;;;17.70;76.10;;;;;;5069287;28;20042;-71
2022/10/06 03:33:51;;;;;;;5.57;1.60;;;17.70;76.00;;;;;;5068130;28;20024;-71
2022/10/06 03:36:23;;;;;;;9.57;1.90;;;17.70;75.80;;;;;;5071027;28;20027;-71
2022/10/06 03:38:50;;;;;;;2.90;1.30;;;17.70;75.80;;;;;;5069912;28;20028;-71
2022/10/06 03:41:20;;;;;;;5.38;1.60;;;17.70;75.90;;;;;;5072007;28;20036;-71
2022/10/06 03:43:48;;;;;;;3.67;1.52;;;17.70;76.00;;;;;;5071575;28;20028;-71
2022/10/06 03:46:18;;;;;;;4.68;1.60;;;17.70;76.20;;;;;;5063984;28;20039;-71
2022/10/06 03:48:46;;;;;;;5.07;2.10;;;17.70;76.10;;;;;;5068702;28;20636;-71
2022/10/06 03:51:17;;;;;;;5.88;1.85;;;17.70;75.90;;;;;;5069291;28;20012;-71
2022/10/06 03:53:49;;;;;;;4.70;1.38;;;17.70;75.90;;;;;;5066206;28;20525;-71
2022/10/06 03:56:18;;;;;;;5.60;2.95;;;17.70;75.90;;;;;;5070764;28;20021;-71
2022/10/06 03:58:49;;;;;;;11.30;2.55;;;17.70;75.70;;;;;;5074117;28;20651;-70
2022/10/06 04:01:21;;;;;;;7.35;3.67;;;17.70;75.90;;;;;;5071913;28;20040;-69
2022/10/06 04:03:48;;;;;;;31.77;4.53;;;17.70;76.00;;;;;;5066278;28;20027;-68
2022/10/06 04:06:17;;;;;;;39.78;7.93;;;17.70;76.10;;;;;;5072349;28;20097;-69
2022/10/06 04:08:45;;;;;;;25.30;17.40;;;17.70;76.60;;;;;;5069678;28;20537;-71
2022/10/06 04:11:17;;;;;;;5.07;2.58;;;17.70;76.10;;;;;;5069966;28;20025;-69
2022/10/06 04:13:45;;;;;;;3.67;1.98;;;17.60;75.60;;;;;;5073293;28;20021;-72
2022/10/06 04:16:31;;;;;;;7.03;3.10;;;17.50;77.20;;;;;;5071750;28;20487;-73
2022/10/06 04:19:03;;;;;;;8.25;1.98;;;17.50;77.30;;;;;;5071575;28;20035;-71
2022/10/06 04:21:33;;;;;;;4.28;1.58;;;17.50;77.30;;;;;;5070729;28;20021;-72
2022/10/06 04:23:59;;;;;;;3.03;1.02;;;17.60;77.20;;;;;;5071473;28;20407;-72
2022/10/06 04:26:32;;;;;;;5.00;1.10;;;17.50;77.00;;;;;;5067757;28;20033;-72
2022/10/06 04:28:59;;;;;;;9.40;7.38;;;17.60;76.90;;;;;;5070808;28;20017;-72
2022/10/06 04:31:29;;;;;;;27.08;16.00;;;17.60;76.80;;;;;;5070714;28;20068;-71
2022/10/06 04:33:58;;;;;;;16.08;10.82;;;17.60;76.70;;;;;;5067785;28;20126;-70
2022/10/06 04:36:37;;;;;;;10.98;6.57;;;17.60;76.70;;;;;;5068308;28;20024;-70
2022/10/06 04:39:04;;;;;;;5.35;3.35;;;17.60;76.50;;;;;;5065604;28;20411;-70
2022/10/06 04:41:34;;;;;;;9.23;2.72;;;17.60;76.20;;;;;;5072598;28;20021;-71
2022/10/06 04:44:01;;;;;;;5.35;1.92;;;17.60;76.10;;;;;;5065282;28;20046;-72
2022/10/06 04:46:28;;;;;;;6.68;1.95;;;17.60;75.90;;;;;;5073497;28;20111;-71
2022/10/06 04:48:55;;;;;;;4.45;1.30;;;17.60;75.70;;;;;;5069897;28;20483;-72
2022/10/06 04:51:24;;;;;;;11.20;1.88;;;17.60;75.50;;;;;;5066560;28;20035;-71
2022/10/06 04:53:51;;;;;;;4.07;1.17;;;17.60;75.80;;;;;;5073471;28;20024;-71
2022/10/06 04:56:26;;;;;;;15.10;2.75;;;17.60;75.60;;;;;;5071036;28;20025;-72
2022/10/06 04:58:54;;;;;;;7.93;2.03;;;17.60;75.70;;;;;;5074195;28;20028;-71
2022/10/06 05:01:30;;;;;;;14.35;1.98;;;17.60;76.00;;;;;;5074833;28;20094;-71
2022/10/06 05:03:58;;;;;;;11.73;2.72;;;17.60;75.80;;;;;;5074232;28;20536;-72
2022/10/06 05:06:26;;;;;;;9.50;1.80;;;17.60;75.70;;;;;;5073956;28;20028;-72
2022/10/06 05:08:55;;;;;;;5.28;1.88;;;17.60;76.50;;;;;;5071329;28;20104;-72
2022/10/06 05:11:22;;;;;;;4.65;1.08;;;17.70;76.80;;;;;;5072851;28;20059;-71
2022/10/06 05:13:50;;;;;;;3.78;1.60;;;17.70;77.20;;;;;;5071624;28;20529;-72
2022/10/06 05:16:17;;;;;;;7.75;1.50;;;17.70;77.70;;;;;;5076675;28;20067;-72
2022/10/06 05:18:44;;;;;;;10.85;1.90;;;17.80;77.90;;;;;;5076109;28;20017;-72
2022/10/06 05:21:16;;;;;;;7.63;1.30;;;17.80;77.90;;;;;;5073971;28;20086;-71
2022/10/06 05:23:44;;;;;;;5.47;1.50;;;17.90;78.10;;;;;;5071805;28;20031;-71
2022/10/06 05:26:13;;;;;;;3.80;1.25;;;17.80;77.60;;;;;;5073932;28;20043;-71
2022/10/06 05:28:40;;;;;;;9.45;1.05;;;17.80;77.00;;;;;;5071722;28;20074;-71
2022/10/06 05:31:13;;;;;;;2.95;0.93;;;17.80;77.00;;;;;;5070316;28;20387;-72
2022/10/06 05:33:41;;;;;;;3.50;1.00;;;17.80;77.30;;;;;;5073037;28;20479;-72
2022/10/06 05:36:13;;;;;;;8.38;1.98;;;17.80;77.20;;;;;;5074331;28;20024;-72
2022/10/06 05:38:40;;;;;;;6.80;1.25;;;17.80;76.90;;;;;;5075065;28;20366;-71
2022/10/06 05:41:22;;;;;;;6.20;1.30;;;17.80;77.00;;;;;;5071773;28;20036;-71
2022/10/06 05:43:50;;;;;;;3.42;0.93;;;17.80;76.70;;;;;;5066352;28;20020;-71
2022/10/06 05:46:28;;;;;;;7.60;2.90;;;17.90;76.40;;;;;;5072795;28;20028;-72
2022/10/06 05:49:09;;;;;;;3.30;1.58;;;17.90;76.10;;;;;;5072529;28;20028;-73
2022/10/06 05:51:38;;;;;;;10.75;2.75;;;17.90;75.80;;;;;;5074044;28;20418;-72
2022/10/06 05:54:05;;;;;;;4.45;2.90;;;17.90;76.00;;;;;;5069956;28;20033;-72
2022/10/06 05:56:35;;;;;;;7.45;1.92;;;17.90;78.60;;;;;;5073039;28;20017;-71
2022/10/06 05:59:02;;;;;;;6.32;1.60;;;17.90;79.30;;;;;;5072364;28;20471;-72
2022/10/06 06:01:31;;;;;;;8.25;2.22;;;17.90;79.20;;;;;;5074336;28;20032;-72
2022/10/06 06:04:03;;;;;;;5.15;1.15;;;17.90;79.20;;;;;;5071215;28;20024;-72
2022/10/06 06:06:37;;;;;;;7.07;1.65;;;17.90;78.90;;;;;;5072264;28;20458;-71
2022/10/06 06:09:09;;;;;;;2.28;1.15;;;17.90;78.60;;;;;;5069954;28;20074;-72
2022/10/06 06:11:42;;;;;;;9.35;1.40;;;17.90;78.30;;;;;;5074290;28;20040;-72
2022/10/06 06:14:11;;;;;;;4.80;1.55;;;17.90;78.10;;;;;;5069330;28;20067;-71
2022/10/06 06:16:39;;;;;;;3.25;1.95;;;17.90;78.00;;;;;;5071299;28;20031;-72
2022/10/06 06:19:08;;;;;;;7.07;1.38;;;17.90;77.90;;;;;;5074146;28;20020;-72
2022/10/06 06:21:34;;;;;;;5.45;1.00;;;17.90;77.80;;;;;;5071521;28;20035;-69
2022/10/06 06:24:02;;;;;;;2.88;1.05;;;17.90;77.70;;;;;;5074694;28;20494;-70
2022/10/06 06:26:31;;;;;;;4.35;1.15;;;17.90;77.80;;;;;;5071083;28;20040;-70
2022/10/06 06:29:02;;;;;;;8.63;1.73;;;17.90;77.80;;;;;;5072936;28;20383;-70
2022/10/06 06:31:34;;;;;;;3.25;1.88;;;17.90;77.80;;;;;;5068974;28;20429;-70
2022/10/06 06:34:03;;;;;;;11.65;2.13;;;17.90;77.80;;;;;;5073635;28;20066;-72
2022/10/06 06:36:35;;;;;;;3.15;1.65;;;17.90;78.00;;;;;;5070818;28;20038;-70
2022/10/06 06:39:05;;;;;;;11.43;2.22;;;18.00;78.30;;;;;;5072081;28;20459;-70
2022/10/06 06:41:36;;;;;;;6.47;1.85;;;18.00;78.50;;;;;;5071204;28;20021;-70
2022/10/06 06:44:04;;;;;;;12.02;2.13;;;18.00;78.90;;;;;;5071765;28;20055;-70
2022/10/06 06:46:31;;;;;;;6.82;2.08;;;18.10;79.00;;;;;;5072471;28;20036;-70
2022/10/06 06:49:02;;;;;;;7.25;1.80;;;18.10;79.00;;;;;;5071732;28;20703;-70
2022/10/06 06:51:34;;;;;;;7.35;2.30;;;18.10;79.10;;;;;;5074326;28;20020;-70
2022/10/06 06:54:01;;;;;;;9.60;2.30;;;18.20;79.00;;;;;;5073331;28;20013;-70
2022/10/06 06:56:33;;;;;;;23.85;5.20;;;18.20;79.00;;;;;;5072547;28;20150;-70
2022/10/06 06:59:01;;;;;;;16.73;4.55;;;18.20;78.90;;;;;;5071173;28;20025;-70
2022/10/06 07:01:28;;;;;;;9.35;1.77;;;18.20;79.10;;;;;;5071874;28;20119;-70
2022/10/06 07:03:57;;;;;;;5.63;1.23;;;18.20;79.30;;;;;;5074774;28;20020;-70
2022/10/06 07:06:27;;;;;;;6.25;1.45;;;18.30;79.60;;;;;;5071592;28;20039;-70
2022/10/06 07:08:55;;;;;;;10.23;1.60;;;18.30;79.70;;;;;;5073645;28;20123;-70
2022/10/06 07:11:26;;;;;;;18.25;3.35;;;18.30;79.60;;;;;;5071224;28;20016;-70
2022/10/06 07:13:56;;;;;;;14.00;3.38;;;18.40;79.50;;;;;;5070678;28;20020;-70
2022/10/06 07:27:34;;;;;;;16.45;2.20;;;18.60;78.70;;;;;;5068241;28;20537;-70
2022/10/06 07:30:01;;;;;;;8.07;1.77;;;18.70;78.70;;;;;;5072854;28;20340;-70
2022/10/06 07:32:30;;;;;;;8.35;1.95;;;18.80;78.70;;;;;;5069738;28;20364;-70
2022/10/06 07:34:59;;;;;;;8.63;3.08;;;18.80;78.60;;;;;;5069588;28;20134;-70
2022/10/06 07:37:30;;;;;;;9.07;1.60;;;18.90;78.60;;;;;;5068772;28;20074;-70
2022/10/06 07:39:56;;;;;;;6.70;2.10;;;18.90;78.70;;;;;;5068697;28;20028;-70
2022/10/06 07:42:23;;;;;;;6.18;2.90;;;18.90;78.60;;;;;;5076295;28;20027;-70
2022/10/06 07:47:37;;;;;;;10.32;1.90;;;19.00;78.80;;;;;;5071446;28;20046;-70
2022/10/06 07:50:05;;;;;;;2.78;1.17;;;19.10;79.00;;;;;;5068374;28;20020;-69
2022/10/06 07:52:32;;;;;;;4.22;1.55;;;19.10;79.00;;;;;;5072364;28;20032;-69
2022/10/06 07:54:58;;;;;;;4.97;1.48;;;19.10;78.80;;;;;;5073243;28;20025;-69
2022/10/06 07:57:33;;;;;;;9.65;2.35;;;19.10;78.50;;;;;;5072574;28;20032;-70
2022/10/06 08:00:00;;;;;;;11.15;1.77;;;19.10;78.40;;;;;;5070342;28;20021;-69
2022/10/06 08:02:27;;;;;;;11.77;1.85;;;19.10;78.40;;;;;;5069997;28;20017;-69
2022/10/06 08:04:54;;;;;;;5.43;1.42;;;19.20;78.50;;;;;;5071468;28;20422;-69
2022/10/06 08:07:20;;;;;;;6.40;2.28;;;19.10;78.30;;;;;;5069121;28;20029;-70
2022/10/06 08:09:47;;;;;;;7.80;1.27;;;19.10;78.20;;;;;;5069296;28;20047;-70
2022/10/06 08:12:32;;;;;;;8.65;2.17;;;19.10;78.10;;;;;;5071816;28;20025;-69
2022/10/06 08:15:02;;;;;;;8.17;1.97;;;19.10;78.00;;;;;;5069493;28;20102;-70
2022/10/06 08:17:29;;;;;;;8.38;1.88;;;19.20;77.80;;;;;;5069104;28;20293;-69
2022/10/06 08:19:56;;;;;;;6.00;2.60;;;19.20;77.70;;;;;;5070992;28;20024;-70
2022/10/06 08:22:28;;;;;;;6.13;1.95;;;19.20;77.10;;;;;;5073890;28;20024;-70
2022/10/06 08:24:59;;;;;;;4.28;1.85;;;19.20;76.70;;;;;;5072632;28;20029;-70
2022/10/06 08:27:28;;;;;;;5.72;1.58;;;19.30;76.70;;;;;;5074085;28;20024;-69
2022/10/06 08:29:55;;;;;;;6.82;1.23;;;19.30;76.50;;;;;;5072093;28;20013;-70
2022/10/06 08:32:22;;;;;;;6.95;1.88;;;19.40;76.50;;;;;;5075230;28;20024;-70
2022/10/06 08:34:49;;;;;;;11.95;1.83;;;19.40;76.40;;;;;;5073204;28;20104;-70
2022/10/06 08:37:22;;;;;;;9.02;1.60;;;19.50;76.20;;;;;;5076703;28;20097;-70
2022/10/06 08:39:50;;;;;;;5.57;1.65;;;19.50;75.90;;;;;;5075369;28;20028;-70
2022/10/06 08:42:40;;;;;;;10.25;3.22;;;19.60;75.70;;;;;;5079689;28;20139;-70
2022/10/06 08:45:23;;;;;;;7.47;2.80;;;19.60;75.40;;;;;;5071661;28;20105;-70
2022/10/06 08:48:15;;;;;;;8.65;1.95;;;19.60;75.70;;;;;;5073315;28;20020;-69
2022/10/06 08:51:21;;;;;;;6.63;2.33;;;19.60;75.20;;;;;;5073495;28;20460;-70
2022/10/06 08:53:50;;;;;;;5.32;1.48;;;19.60;74.80;;;;;;5064972;28;20040;-70
2022/10/06 08:56:21;;;;;;;6.88;2.58;;;19.60;74.80;;;;;;5075960;28;20099;-70
2022/10/06 08:59:03;;;;;;;5.22;1.73;;;19.60;74.70;;;;;;5073893;28;20537;-70
2022/10/06 09:01:47;;;;;;;5.05;2.15;;;19.60;74.60;;;;;;5072829;28;20066;-70
2022/10/06 09:04:30;;;;;;;9.48;2.08;;;19.60;74.60;;;;;;5074900;28;20099;-70
2022/10/06 09:07:22;;;;;;;16.13;2.65;;;19.60;74.70;;;;;;5069405;28;20029;-70
2022/10/06 09:10:48;;;;;;;12.70;1.80;;;19.60;75.00;;;;;;5080652;28;20448;-70
2022/10/06 09:13:27;;;;;;;10.75;4.10;;;19.60;75.40;;;;;;5064512;28;20471;-70
2022/10/06 09:15:59;;;;;;;8.32;3.42;;;19.70;75.10;;;;;;5063705;28;20542;-70
2022/10/06 09:18:48;;;;;;;4.05;1.25;;;19.70;74.80;;;;;;5074723;28;20036;-70
2022/10/06 09:21:22;;;;;;;6.00;3.55;;;19.70;74.60;;;;;;5072529;28;20029;-69
2022/10/06 09:23:56;;;;;;;12.23;2.25;;;19.80;74.60;;;;;;5068142;28;20367;-70
2022/10/06 09:26:28;;;;;;;5.03;1.10;;;19.90;74.10;;;;;;5070778;28;20025;-70
2022/10/06 09:28:56;;;;;;;16.38;2.92;;;20.00;73.60;;;;;;5073380;28;20020;-70
2022/10/06 09:31:28;;;;;;;6.57;1.35;;;20.00;73.50;;;;;;5071864;28;20024;-70
2022/10/06 09:34:04;;;;;;;3.25;1.50;;;20.10;73.20;;;;;;5073055;28;20035;-70
2022/10/06 09:36:31;;;;;;;9.25;2.10;;;20.10;73.30;;;;;;5074496;28;20395;-70
2022/10/06 09:38:59;;;;;;;4.90;2.22;;;20.20;73.40;;;;;;5073977;28;20517;-70
2022/10/06 09:41:36;;;;;;;3.55;1.65;;;20.10;72.90;;;;;;5071655;28;20025;-71
2022/10/06 09:44:05;;;;;;;5.95;1.40;;;20.10;72.40;;;;;;5070105;28;20051;-70
2022/10/06 09:46:33;;;;;;;4.35;1.45;;;20.10;72.60;;;;;;5076498;28;20394;-70
2022/10/06 09:49:16;;;;;;;4.78;1.48;;;20.10;72.60;;;;;;5074127;28;20074;-70
2022/10/06 09:52:11;;;;;;;3.50;1.30;;;20.10;72.70;;;;;;5075516;28;20024;-70
2022/10/06 09:54:40;;;;;;;12.77;3.15;;;20.10;72.80;;;;;;5075555;28;20460;-70
2022/10/06 09:57:30;;;;;;;6.43;1.55;;;20.10;72.80;;;;;;5071907;28;20028;-70
2022/10/06 09:59:58;;;;;;;5.05;1.75;;;20.10;72.40;;;;;;5072475;28;20422;-70
2022/10/06 10:02:36;;;;;;;8.88;2.30;;;20.20;72.70;;;;;;5074950;28;20481;-70
2022/10/06 10:05:18;;;;;;;4.95;1.58;;;20.20;72.80;;;;;;5071810;28;20470;-70
2022/10/06 10:07:46;;;;;;;6.20;1.35;;;20.20;72.80;;;;;;5071952;28;20056;-70
2022/10/06 10:10:23;;;;;;;4.10;1.40;;;20.20;72.70;;;;;;5075152;28;20021;-69
2022/10/06 10:12:55;;;;;;;5.28;1.83;;;20.20;72.50;;;;;;5070724;28;20126;-70
2022/10/06 10:15:21;;;;;;;3.83;1.30;;;20.20;72.30;;;;;;5072686;28;20498;-69
2022/10/06 10:17:57;;;;;;;12.45;1.92;;;20.20;72.30;;;;;;5071426;28;20024;-70
2022/10/06 10:20:37;;;;;;;12.57;1.60;;;20.20;72.40;;;;;;5073526;28;20018;-70
2022/10/06 10:23:32;;;;;;;5.18;1.80;;;20.20;72.50;;;;;;5075727;28;20557;-71
2022/10/06 10:26:29;;;;;;;7.10;2.03;;;20.30;72.70;;;;;;5088362;28;20044;-70
2022/10/06 10:29:33;;;;;;;7.40;1.77;;;20.30;73.00;;;;;;5070491;28;20495;-70
2022/10/06 10:32:28;;;;;;;4.75;1.33;;;20.40;72.80;;;;;;5073270;28;20414;-69
2022/10/06 10:35:26;;;;;;;4.63;1.77;;;20.40;72.60;;;;;;5072335;28;20032;-70
2022/10/06 10:38:01;;;;;;;7.82;1.40;;;20.40;71.80;;;;;;5068041;28;20525;-69
2022/10/06 10:41:05;;;;;;;7.85;1.27;;;20.40;71.50;;;;;;5072602;28;20024;-69
2022/10/06 10:44:13;;;;;;;15.52;2.28;;;20.30;71.20;;;;;;5047607;28;20423;-70
2022/10/06 10:46:50;;;;;;;11.15;1.95;;;20.20;71.20;;;;;;5068096;28;20048;-70
2022/10/06 10:49:27;;;;;;;6.80;1.55;;;20.20;71.90;;;;;;5073000;28;20034;-70
2022/10/06 10:52:02;;;;;;;7.25;1.60;;;20.20;72.30;;;;;;5072086;28;20536;-72
2022/10/06 10:54:43;;;;;;;8.52;2.25;;;20.20;72.60;;;;;;5078289;28;20052;-72
2022/10/06 10:57:15;;;;;;;5.75;1.48;;;20.20;72.40;;;;;;5070314;28;20023;-71
2022/10/06 10:59:47;;;;;;;5.43;1.70;;;20.10;72.20;;;;;;5071551;28;20117;-72
2022/10/06 11:02:21;;;;;;;16.55;2.58;;;20.10;72.30;;;;;;5075689;28;20029;-72
2022/10/06 11:05:00;;;;;;;10.32;2.40;;;20.10;73.00;;;;;;5069599;28;20132;-72
2022/10/06 11:07:47;;;;;;;9.38;2.50;;;20.20;73.30;;;;;;5069727;28;20024;-72
2022/10/06 11:10:32;;;;;;;8.10;1.40;;;20.20;73.10;;;;;;5067440;28;20037;-71
2022/10/06 11:13:16;;;;;;;;;;;20.10;72.60;;;;;;5071378;28;20445;-69
2022/10/06 11:16:03;;;;;;;14.18;3.83;;;20.10;72.80;;;;;;5073157;28;19920;-72
2022/10/06 11:18:45;;;;;;;5.18;1.73;;;20.10;72.90;;;;;;5071620;28;20017;-71
2022/10/06 11:21:22;;;;;;;7.70;1.10;;;20.10;72.90;;;;;;5069715;28;20023;-71
2022/10/06 11:24:06;;;;;;;5.40;1.88;;;20.10;73.40;;;;;;5066330;28;20166;-71
2022/10/06 11:26:47;;;;;;;5.93;2.33;;;20.10;73.60;;;;;;5070967;28;20383;-72
2022/10/06 11:29:52;;;;;;;10.35;3.05;;;20.10;73.80;;;;;;5071612;28;20047;-72
2022/10/06 11:32:36;;;;;;;7.40;2.15;;;20.10;74.40;;;;;;5040942;28;20045;-71
2022/10/06 11:35:13;;;;;;;6.13;2.28;;;20.10;74.40;;;;;;5045264;28;20430;-72
2022/10/06 11:37:50;;;;;;;4.40;1.40;;;20.10;74.00;;;;;;5062436;28;20036;-72
2022/10/06 11:40:49;;;;;;;8.23;1.60;;;20.10;73.90;;;;;;5071048;28;20036;-72
2022/10/06 11:43:45;;;;;;;13.88;3.67;;;20.10;73.80;;;;;;5069679;28;20052;-71
2022/10/06 11:46:36;;;;;;;5.28;1.52;;;20.10;73.80;;;;;;5071694;28;20032;-71
2022/10/06 11:49:27;;;;;;;8.30;1.95;;;20.10;73.80;;;;;;5070799;28;20029;-72
2022/10/06 11:52:17;;;;;;;6.72;1.63;;;20.10;73.60;;;;;;5068959;28;20543;-72
2022/10/06 11:55:09;;;;;;;4.53;1.65;;;20.10;73.60;;;;;;5074333;28;20471;-71
2022/10/06 11:58:04;;;;;;;14.95;3.80;;;20.20;73.50;;;;;;5070403;28;20500;-72
2022/10/06 12:00:33;;;;;;;8.35;1.45;;;20.30;73.50;;;;;;5070879;28;20063;-72
2022/10/06 12:03:43;;;;;;;5.10;2.13;;;20.30;73.40;;;;;;5074307;28;20031;-71
2022/10/06 12:06:42;;;;;;;4.07;1.83;;;20.40;73.20;;;;;;5041527;28;20029;-71
2022/10/06 12:09:29;;;;;;;3.78;1.70;;;20.40;73.20;;;;;;5069572;28;20031;-71
2022/10/06 12:12:16;;;;;;;13.27;1.58;;;20.50;73.00;;;;;;5070447;28;20055;-71
2022/10/06 12:14:51;;;;;;;5.28;1.98;;;20.50;73.40;;;;;;5070699;28;20059;-71
2022/10/06 12:17:26;;;;;;;8.48;2.33;;;20.50;72.40;;;;;;5068864;28;20495;-72
2022/10/06 12:20:17;;;;;;;7.80;1.52;;;20.60;72.30;;;;;;5071938;28;20103;-71
2022/10/06 12:22:47;;;;;;;4.75;1.65;;;20.60;72.40;;;;;;5072574;28;20111;-71
2022/10/06 12:25:25;;;;;;;14.07;4.00;;;20.70;72.00;;;;;;5069499;28;20072;-71
2022/10/06 12:28:20;;;;;;;9.38;2.75;;;20.70;72.00;;;;;;5064454;28;20028;-71
2022/10/06 12:31:08;;;;;;;8.57;1.53;;;20.70;71.90;;;;;;5071819;28;20067;-71
2022/10/06 12:33:40;;;;;;;13.30;2.35;;;20.80;71.00;;;;;;5068050;28;20447;-71
2022/10/06 12:36:28;;;;;;;22.40;4.50;;;20.80;71.40;;;;;;5072423;28;20037;-71
2022/10/06 12:39:03;;;;;;;4.65;2.88;;;20.80;71.60;;;;;;5069130;28;20013;-71
2022/10/06 12:42:02;;;;;;;10.20;2.72;;;20.90;71.40;;;;;;5070820;28;20427;-71
2022/10/06 12:44:42;;;;;;;6.97;1.75;;;20.90;70.90;;;;;;5068643;28;20024;-71
2022/10/06 12:47:40;;;;;;;7.68;2.92;;;20.90;71.20;;;;;;5068497;28;20032;-71
2022/10/06 12:50:41;;;;;;;5.82;1.35;;;21.00;71.10;;;;;;5072649;28;20024;-71
2022/10/06 12:53:17;;;;;;;3.40;1.27;;;21.00;70.90;;;;;;5052382;28;20098;-71
2022/10/06 12:55:50;;;;;;;5.47;1.70;;;21.10;71.00;;;;;;5070918;28;20024;-71
2022/10/06 12:58:31;;;;;;;7.65;1.65;;;21.10;70.40;;;;;;5071705;28;20028;-71
2022/10/06 13:01:17;;;;;;;3.88;1.58;;;21.10;69.80;;;;;;5069769;28;20064;-71
2022/10/06 13:03:48;;;;;;;10.15;2.25;;;21.10;69.50;;;;;;5072796;28;20094;-72
2022/10/06 13:06:23;;;;;;;5.43;2.33;;;21.20;69.20;;;;;;5069012;28;20055;-71
2022/10/06 13:09:28;;;;;;;6.90;1.50;;;21.20;69.00;;;;;;5075943;28;20070;-71
2022/10/06 13:11:54;;;;;;;8.93;1.80;;;21.20;68.70;;;;;;5007984;28;20042;-71
2022/10/06 13:14:21;;;;;;;6.65;1.30;;;21.30;68.50;;;;;;5006033;28;20045;-71
2022/10/06 13:16:48;;;;;;;12.38;1.83;;;21.30;68.20;;;;;;5034499;28;20040;-71
2022/10/06 13:19:27;;;;;;;6.15;1.90;;;21.30;68.00;;;;;;5073341;28;20020;-71
2022/10/06 13:21:54;;;;;;;14.40;2.65;;;21.30;68.40;;;;;;5073855;28;20020;-71
2022/10/06 13:24:25;;;;;;;10.98;1.88;;;21.30;68.90;;;;;;5073110;28;20379;-71
2022/10/06 13:26:53;;;;;;;26.90;3.10;;;21.40;69.00;;;;;;5075450;28;20037;-71
2022/10/06 13:29:24;;;;;;;6.57;1.20;;;21.40;69.10;;;;;;5076400;28;20023;-71
2022/10/06 13:31:55;;;;;;;5.43;2.33;;;21.50;69.10;;;;;;5073738;28;20023;-72
2022/10/06 13:34:41;;;;;;;8.73;1.50;;;21.50;69.10;;;;;;5072515;28;20016;-71
2022/10/06 13:37:13;;;;;;;7.30;1.80;;;21.50;69.30;;;;;;5073189;28;20027;-71
2022/10/06 13:39:40;;;;;;;5.68;1.50;;;21.40;69.30;;;;;;5070940;28;20024;-71
2022/10/06 13:42:15;;;;;;;7.78;1.60;;;21.40;69.40;;;;;;5073586;28;20028;-71
2022/10/06 13:44:59;;;;;;;5.40;1.98;;;21.30;69.50;;;;;;5073143;28;20081;-71
2022/10/06 13:47:28;;;;;;;7.32;2.55;;;21.30;69.70;;;;;;5073869;28;20035;-71
2022/10/06 13:50:06;;;;;;;5.57;1.50;;;21.20;70.00;;;;;;5071222;28;20399;-72